Portada
METAR-TAF:

METAR-TAF

Aeropuertos :

Aeropuerto Internacional de Minneapolis-Saint Paul

Minneapolis, Minnesota, Estados Unidos

latitud: 44-52-59N, longitud: 093-13-44W, altitud: 256 m

Observación

El informe se hizo hace 21 minutos, a las 08:53 UTC
Viento 4 kt del norte-noreste
Temperatura -4°C
Humedad 86%
Presión 1016 hPa
Visibilidad: 14.5 km
Cielo cubierto a una altura de 700 ft

METAR: KMSP 270853Z 02004KT 9SM OVC007 M04/M06 A2999 RMK AO2 SLP166 T10391061 52006

Hora: 03:14 (09:14 UTC)

Pronóstico

El informe se hizo hace 23 minutos, a las 08:51 UTC
Pronóstico válido del 27 a las 09 UTC al 28 a las 12 UTC
Viento 4 kt del norte
Visibilidad: 10 km
Cielo cubierto a una altura de 700 ft
A partir de las 27 a las 1700 UTC
Viento 6 kt del oeste-noroeste
Visibilidad: 10 km
Cielo cubierto a una altura de 1200 ft

TAF: KMSP 270851Z 2709/2812 36004KT P6SM OVC007 FM271700 30006KT P6SM OVC012

Observaciones y pronósticos meteorológicos de más de 4000 aeropuertos (mensajes METAR y TAF).

Los puntos amarillos y rojos representan las estaciones disponibles.

Ponga el ratón en el punto deseado para ver el nombre de la estación.

Haga clic para ver las observaciones y los pronósticos meteorológicos.

Para cambiar el mapa : haga clic en los botones verdes con una cruz de color negro para hacer un zoom, en el botón verde con un guión para alejar o en las flechas verdes para mapas adyacentes.


METAR-TAF: